HKEL

Details ICAO HKEL (EDL)
Name ELDORET INTL
Region Kenya
Timezone Africa/Nairobi (UTC+3.0)
Plans Departing 18
Arriving 19
Stats Elevation 6,941 ft / 2,116 m (AMSL)
Location 0.404011° 35.236706°
Runways 1
Magnetic Variation 1.322° E
Sunrise 2018-06-20 03:37:30 UTC / 2018-06-20 06:37:30 Local
Sunset 2018-06-20 15:46:10 UTC / 2018-06-20 18:46:10 Local
Advertisement - Login to hide

Runways

ID Width Length Bearing (true) Bearing (mag) Surface Threshold Offset Overrun Length
08 148 ft / 45 m 11,473 ft / 3,497 m 78.64° 77.32° Asphalt 0 ft / 0 m 0 ft / 0 m
26 148 ft / 45 m 11,473 ft / 3,497 m 258.64° 257.32° Asphalt 0 ft / 0 m 0 ft / 0 m

Map

Weather


0- 5 10 15 20 25 30 35+ Temperature / ° C

Clouds and Precipitation
Forecast for 2018-06-20 06:00 UTC. Updated 6 hours ago

Ground ~20,000 ft ~40,000 ft Winds

METAR

HKEL 200900Z 03004KT FEW019CB BKN020 20/13 Q1027

TAF

TAF TAF HKEL 200500Z 2006/2106 VRB05KT 9999 FEW020CB BKN022 TEMPO 2012/2018 -TSRA FEW018CB SCT020 BKN080 BECMG 2020/2023 -RA FEW016 FEW017CB BKN080

Frequencies

Tower 118.40 MHz TWR
Approach 121.10 MHz RADAR
Approach 119.40 MHz APP
Warning: Do not use this data for real-world aviation or navigation. No guarantee of current accuracy is given.